createdAt,value
2023-02-12T00:00:03.855Z,8.35
2023-02-12T00:02:31.652Z,9.30
2023-02-12T00:04:58.538Z,8.95
2023-02-12T00:07:25.432Z,8.88
2023-02-12T00:09:52.292Z,9.30
2023-02-12T00:12:19.084Z,9.13
2023-02-12T00:14:46.142Z,9.15
2023-02-12T00:17:15.186Z,8.35
2023-02-12T00:19:44.153Z,8.02
2023-02-12T00:22:13.210Z,8.18
2023-02-12T00:24:40.159Z,9.05
2023-02-12T00:27:06.978Z,8.48
2023-02-12T00:29:33.884Z,8.27
2023-02-12T00:32:03.026Z,7.55
2023-02-12T00:34:33.055Z,7.75
2023-02-12T00:37:00.058Z,7.68
2023-02-12T00:39:27.025Z,7.00
2023-02-12T00:41:54.177Z,7.13
2023-02-12T00:44:23.156Z,6.57
2023-02-12T00:46:52.186Z,7.20
2023-02-12T00:49:20.492Z,7.00
2023-02-12T00:51:47.300Z,8.52
2023-02-12T00:54:14.225Z,9.05
2023-02-12T00:56:41.460Z,8.02
2023-02-12T00:59:08.758Z,8.70
2023-02-12T01:01:36.049Z,8.48
2023-02-12T01:04:05.324Z,7.55
2023-02-12T01:06:32.443Z,8.48
2023-02-12T01:09:01.700Z,8.52
2023-02-12T01:11:31.312Z,7.50
2023-02-12T01:13:58.366Z,7.63
2023-02-12T01:16:27.954Z,8.02
2023-02-12T01:18:56.185Z,7.32
2023-02-12T01:21:24.433Z,6.97
2023-02-12T01:23:53.450Z,7.90
2023-02-12T01:26:23.777Z,8.20
2023-02-12T01:28:54.934Z,7.40
2023-02-12T01:31:23.359Z,6.60
2023-02-12T01:33:51.145Z,7.25
2023-02-12T01:36:18.268Z,7.18
2023-02-12T01:38:45.248Z,7.88
2023-02-12T01:41:19.909Z,7.45
2023-02-12T01:44:05.372Z,7.13
2023-02-12T01:46:32.260Z,6.65
2023-02-12T01:48:59.504Z,6.80
2023-02-12T01:51:27.822Z,6.50
2023-02-12T01:53:55.597Z,6.10
2023-02-12T01:56:26.460Z,6.18
2023-02-12T01:58:55.698Z,6.90
2023-02-12T02:01:26.351Z,6.38
2023-02-12T02:03:55.604Z,5.88
2023-02-12T02:06:27.907Z,6.80
2023-02-12T02:08:57.666Z,5.90
2023-02-12T02:11:43.228Z,5.75
2023-02-12T02:14:28.712Z,6.63
2023-02-12T02:17:14.514Z,6.00
2023-02-12T02:20:01.648Z,5.95
2023-02-12T02:22:57.951Z,5.72
2023-02-12T02:25:35.090Z,5.15
2023-02-12T02:28:20.903Z,5.72
2023-02-12T02:30:57.939Z,5.82
2023-02-12T02:33:25.041Z,5.32
2023-02-12T02:36:05.115Z,4.95
2023-02-12T02:38:39.572Z,5.13
2023-02-12T02:41:11.702Z,4.72
2023-02-12T02:43:41.081Z,4.85
2023-02-12T02:46:13.869Z,4.90
2023-02-12T02:48:44.158Z,5.18
2023-02-12T02:51:20.024Z,4.82
2023-02-12T02:53:53.879Z,4.75
2023-02-12T02:56:22.950Z,5.20
2023-02-12T02:59:05.681Z,4.43
2023-02-12T03:01:50.545Z,4.63
2023-02-12T03:04:21.171Z,4.60
2023-02-12T03:06:54.667Z,4.32
2023-02-12T03:09:23.199Z,5.20
2023-02-12T03:11:53.517Z,5.10
2023-02-12T03:14:31.724Z,3.95
2023-02-12T03:17:10.385Z,4.18
2023-02-12T03:19:40.201Z,4.60
2023-02-12T03:22:09.484Z,4.22
2023-02-12T03:24:38.971Z,4.25
2023-02-12T03:27:11.736Z,4.10
2023-02-12T03:29:38.656Z,4.30
2023-02-12T03:32:12.047Z,4.20
2023-02-12T03:34:47.731Z,4.60
2023-02-12T03:37:18.304Z,4.07
2023-02-12T03:39:54.196Z,4.85
2023-02-12T03:42:29.913Z,3.97
2023-02-12T03:45:16.983Z,4.85
2023-02-12T03:47:43.741Z,4.53
2023-02-12T03:50:16.757Z,3.92
2023-02-12T03:52:43.758Z,4.00
2023-02-12T03:55:10.981Z,4.28
2023-02-12T03:57:43.164Z,4.60
2023-02-12T04:00:12.395Z,4.38
2023-02-12T04:02:39.284Z,4.50
2023-02-12T04:05:06.765Z,4.28
2023-02-12T04:07:34.779Z,4.68
2023-02-12T04:10:01.619Z,3.83
2023-02-12T04:12:43.771Z,3.58
2023-02-12T04:15:16.405Z,4.00
2023-02-12T04:18:05.745Z,4.15
2023-02-12T04:20:38.879Z,4.40
2023-02-12T04:23:05.658Z,4.15
2023-02-12T04:26:02.460Z,3.88
2023-02-12T04:28:41.292Z,3.72
2023-02-12T04:31:17.464Z,3.97
2023-02-12T04:34:07.608Z,4.15
2023-02-12T04:36:37.238Z,3.65
2023-02-12T04:39:11.200Z,4.40
2023-02-12T04:41:41.253Z,4.05
2023-02-12T04:44:34.424Z,4.40
2023-02-12T04:47:01.617Z,4.38
2023-02-12T04:49:28.720Z,3.60
2023-02-12T04:51:55.480Z,3.63
2023-02-12T04:54:23.037Z,4.43
2023-02-12T04:56:49.919Z,3.80
2023-02-12T04:59:16.802Z,3.42
2023-02-12T05:01:44.380Z,3.83
2023-02-12T05:04:12.352Z,3.95
2023-02-12T05:06:39.508Z,3.33
2023-02-12T05:09:07.222Z,3.88
2023-02-12T05:11:34.135Z,4.22
2023-02-12T05:14:01.076Z,4.30
2023-02-12T05:16:27.933Z,4.10
2023-02-12T05:18:54.694Z,4.20
2023-02-12T05:21:21.585Z,3.90
2023-02-12T05:23:48.670Z,4.10
2023-02-12T05:26:18.367Z,4.15
2023-02-12T05:28:45.201Z,4.30
2023-02-12T05:31:14.337Z,4.05
2023-02-12T05:33:47.099Z,4.30
2023-02-12T05:36:15.048Z,4.15
2023-02-12T05:38:41.953Z,4.38
2023-02-12T05:41:10.321Z,4.38
2023-02-12T05:43:37.204Z,3.83
2023-02-12T05:46:05.084Z,4.05
2023-02-12T05:48:32.183Z,4.07
2023-02-12T05:51:03.029Z,3.97
2023-02-12T05:53:29.981Z,4.18
2023-02-12T05:56:06.179Z,4.45
2023-02-12T05:58:32.955Z,4.45
2023-02-12T06:00:59.750Z,4.10
2023-02-12T06:03:26.614Z,4.47
2023-02-12T06:05:53.890Z,4.70
2023-02-12T06:08:20.917Z,4.20
2023-02-12T06:10:47.787Z,4.57
2023-02-12T06:13:14.565Z,3.75
2023-02-12T06:15:41.428Z,3.45
2023-02-12T06:18:08.249Z,4.22
2023-02-12T06:20:35.043Z,3.97
2023-02-12T06:23:02.105Z,3.63
2023-02-12T06:25:28.885Z,4.30
2023-02-12T06:27:55.725Z,3.90
2023-02-12T06:30:22.969Z,3.75
2023-02-12T06:32:50.250Z,3.90
2023-02-12T06:35:17.088Z,3.88
2023-02-12T06:37:43.869Z,3.70
2023-02-12T06:40:10.875Z,3.85
2023-02-12T06:42:37.751Z,4.28
2023-02-12T06:45:04.966Z,3.80
2023-02-12T06:47:31.750Z,4.18
2023-02-12T06:49:58.743Z,4.07
2023-02-12T06:52:25.563Z,4.22
2023-02-12T06:54:52.408Z,4.28
2023-02-12T06:57:19.228Z,4.40
2023-02-12T06:59:46.081Z,5.00
2023-02-12T07:02:12.907Z,4.65
2023-02-12T07:04:39.782Z,3.80
2023-02-12T07:07:06.937Z,4.20
2023-02-12T07:09:33.791Z,4.18
2023-02-12T07:12:00.652Z,3.95
2023-02-12T07:14:28.478Z,4.03
2023-02-12T07:16:57.263Z,3.72
2023-02-12T07:19:24.692Z,3.88
2023-02-12T07:21:51.594Z,3.75
2023-02-12T07:24:18.414Z,4.53
2023-02-12T07:26:45.341Z,4.18
2023-02-12T07:29:12.783Z,3.60
2023-02-12T07:31:40.107Z,3.78
2023-02-12T07:34:07.534Z,4.25
2023-02-12T07:36:34.388Z,4.57
2023-02-12T07:39:01.763Z,4.32
2023-02-12T07:41:29.873Z,4.90
2023-02-12T07:43:57.464Z,4.10
2023-02-12T07:46:29.671Z,4.20
2023-02-12T07:49:00.774Z,4.70
2023-02-12T07:51:27.817Z,3.80
2023-02-12T07:53:54.687Z,4.03
2023-02-12T07:56:22.758Z,4.10
2023-02-12T07:58:50.375Z,4.60
2023-02-12T08:01:21.960Z,4.70
2023-02-12T08:06:23.302Z,4.10
2023-02-12T08:08:54.314Z,5.20
2023-02-12T08:11:21.633Z,4.85
2023-02-12T08:13:48.651Z,5.25
2023-02-12T08:16:18.205Z,5.32
2023-02-12T08:18:45.390Z,6.07
2023-02-12T08:21:13.599Z,5.63
2023-02-12T08:23:40.387Z,5.20
2023-02-12T08:26:15.031Z,5.90
2023-02-12T08:28:43.683Z,6.32
2023-02-12T08:31:13.803Z,5.93
2023-02-12T08:33:40.824Z,6.88
2023-02-12T08:36:12.026Z,5.80
2023-02-12T08:38:39.283Z,6.13
2023-02-12T08:41:26.381Z,6.00
2023-02-12T08:43:55.495Z,5.97
2023-02-12T08:46:23.910Z,6.72
2023-02-12T08:48:55.250Z,6.15
2023-02-12T08:51:41.596Z,6.15
2023-02-12T08:54:10.810Z,6.07
2023-02-12T08:56:37.900Z,5.78
2023-02-12T08:59:06.107Z,6.18
2023-02-12T09:01:33.927Z,6.38
2023-02-12T09:04:01.052Z,6.15
2023-02-12T09:06:27.916Z,5.90
2023-02-12T09:08:55.317Z,6.47
2023-02-12T09:11:26.748Z,6.13
2023-02-12T09:13:53.611Z,6.22
2023-02-12T09:16:20.492Z,5.70
2023-02-12T09:18:47.480Z,6.05
2023-02-12T09:21:16.813Z,5.97
2023-02-12T09:23:44.385Z,5.25
2023-02-12T09:26:13.124Z,5.15
2023-02-12T09:28:40.435Z,4.93
2023-02-12T09:31:12.237Z,5.70
2023-02-12T09:33:39.490Z,4.72
2023-02-12T09:36:07.799Z,3.47
2023-02-12T09:38:34.898Z,3.78
2023-02-12T09:41:07.867Z,4.07
2023-02-12T09:44:10.216Z,3.58
2023-02-12T09:46:49.947Z,3.53
2023-02-12T09:49:16.787Z,2.97
2023-02-12T09:51:45.521Z,2.90
2023-02-12T09:54:12.442Z,2.80
2023-02-12T09:56:41.754Z,2.58
2023-02-12T09:59:08.874Z,2.92
2023-02-12T10:01:35.886Z,3.22
2023-02-12T10:04:05.067Z,2.95
2023-02-12T10:06:40.089Z,3.38
2023-02-12T10:09:06.876Z,3.45
2023-02-12T10:11:46.199Z,3.45
2023-02-12T10:14:19.142Z,3.33
2023-02-12T10:16:58.356Z,3.63
2023-02-12T10:19:25.176Z,3.45
2023-02-12T10:21:59.838Z,3.33
2023-02-12T10:24:26.580Z,3.65
2023-02-12T10:26:55.946Z,3.80
2023-02-12T10:29:28.499Z,3.70
2023-02-12T10:34:32.270Z,3.63
2023-02-12T10:37:03.090Z,3.53
2023-02-12T10:39:33.245Z,3.63
2023-02-12T10:42:08.021Z,3.97
2023-02-12T10:44:34.867Z,4.00
2023-02-12T10:47:01.701Z,4.07
2023-02-12T10:49:31.048Z,4.55
2023-02-12T10:52:24.114Z,4.75
2023-02-12T10:54:50.891Z,4.13
2023-02-12T10:57:20.663Z,4.35
2023-02-12T10:59:48.651Z,4.30
2023-02-12T11:02:34.699Z,3.75
2023-02-12T11:05:15.853Z,3.60
2023-02-12T11:07:47.502Z,3.50
2023-02-12T11:10:20.647Z,3.05
2023-02-12T11:12:49.260Z,2.95
2023-02-12T11:15:18.096Z,3.25
2023-02-12T11:17:46.602Z,3.00
2023-02-12T11:20:16.470Z,2.58
2023-02-12T11:23:00.152Z,2.47
2023-02-12T11:25:28.971Z,1.45
2023-02-12T11:28:00.296Z,1.48
2023-02-12T11:30:27.495Z,1.63
2023-02-12T11:32:54.322Z,2.10
2023-02-12T11:35:28.601Z,1.98
2023-02-12T11:37:59.250Z,1.67
2023-02-12T11:40:31.153Z,1.80
2023-02-12T11:43:01.800Z,2.00
2023-02-12T11:45:49.964Z,1.88
2023-02-12T11:48:19.307Z,1.90
2023-02-12T11:50:50.970Z,1.77
2023-02-12T11:53:25.691Z,2.50
2023-02-12T11:55:57.605Z,2.38
2023-02-12T11:58:25.153Z,2.50
2023-02-12T12:00:55.010Z,2.30
2023-02-12T12:03:25.421Z,2.28
2023-02-12T12:05:53.383Z,2.33
2023-02-12T12:08:28.999Z,2.35
2023-02-12T12:11:01.993Z,2.00
2023-02-12T12:13:32.460Z,1.70
2023-02-12T12:16:33.422Z,1.50
2023-02-12T12:19:23.414Z,1.50
2023-02-12T12:22:05.948Z,1.63
2023-02-12T12:24:36.068Z,1.65
2023-02-12T12:27:14.463Z,1.33
2023-02-12T12:30:06.813Z,1.80
2023-02-12T12:32:36.044Z,1.40
2023-02-12T12:35:02.970Z,1.63
2023-02-12T12:37:36.017Z,1.45
2023-02-12T12:40:21.637Z,1.83
2023-02-12T12:42:48.483Z,1.35
2023-02-12T12:45:30.776Z,1.40
2023-02-12T12:48:08.100Z,1.73
2023-02-12T12:50:42.298Z,1.75
2023-02-12T12:53:16.202Z,1.70
2023-02-12T12:55:47.247Z,1.80
2023-02-12T12:58:17.208Z,1.70
2023-02-12T13:01:02.702Z,1.73
2023-02-12T13:03:38.851Z,2.00
2023-02-12T13:06:21.406Z,1.73
2023-02-12T13:08:51.205Z,1.70
2023-02-12T13:11:21.244Z,1.70
2023-02-12T13:13:53.780Z,1.65
2023-02-12T13:16:26.514Z,1.80
2023-02-12T13:18:59.150Z,1.55
2023-02-12T13:21:25.941Z,1.88
2023-02-12T13:23:52.720Z,1.70
2023-02-12T13:26:38.472Z,1.58
2023-02-12T13:29:12.193Z,1.60
2023-02-12T13:31:45.236Z,1.95
2023-02-12T13:34:14.723Z,1.58
2023-02-12T13:36:41.729Z,1.80
2023-02-12T13:39:27.301Z,1.75
2023-02-12T13:42:01.157Z,1.60
2023-02-12T13:44:32.963Z,1.88
2023-02-12T13:47:02.900Z,1.50
2023-02-12T13:49:48.279Z,1.58
2023-02-12T13:52:24.691Z,1.50
2023-02-12T13:55:09.352Z,1.58
2023-02-12T13:57:36.134Z,1.80
2023-02-12T14:00:08.416Z,1.73
2023-02-12T14:02:37.305Z,1.98
2023-02-12T14:05:39.850Z,2.00
2023-02-12T14:08:07.201Z,2.13
2023-02-12T14:10:39.592Z,2.40
2023-02-12T14:13:12.448Z,2.40
2023-02-12T14:15:41.841Z,3.15
2023-02-12T14:18:28.933Z,2.35
2023-02-12T14:21:14.099Z,2.28
2023-02-12T14:23:44.828Z,2.53
2023-02-12T14:26:16.459Z,2.17
2023-02-12T14:29:02.100Z,2.22
2023-02-12T14:31:31.815Z,1.88
2023-02-12T14:34:04.745Z,1.95
2023-02-12T14:36:32.291Z,1.85
2023-02-12T14:39:00.787Z,1.92
2023-02-12T14:41:43.120Z,2.00
2023-02-12T14:44:27.430Z,1.90
2023-02-12T14:46:55.935Z,2.67
2023-02-12T14:49:44.205Z,1.90
2023-02-12T14:52:11.824Z,1.80
2023-02-12T14:54:44.121Z,2.10
2023-02-12T14:57:27.423Z,1.95
2023-02-12T15:00:04.309Z,2.25
2023-02-12T15:02:37.846Z,1.95
2023-02-12T15:05:07.750Z,2.40
2023-02-12T15:07:41.143Z,2.42
2023-02-12T15:10:28.321Z,2.47
2023-02-12T15:13:01.906Z,2.55
2023-02-12T15:15:33.731Z,2.40
2023-02-12T15:18:03.638Z,2.47
2023-02-12T15:20:35.436Z,2.50
2023-02-12T15:23:03.193Z,2.30
2023-02-12T15:25:31.950Z,2.33
2023-02-12T15:28:00.810Z,2.60
2023-02-12T15:30:32.410Z,2.65
2023-02-12T15:33:04.298Z,2.47
2023-02-12T15:35:32.584Z,2.88
2023-02-12T15:38:03.411Z,2.47
2023-02-12T15:40:31.123Z,2.30
2023-02-12T15:43:02.112Z,2.90
2023-02-12T15:45:32.934Z,2.58
2023-02-12T15:47:59.713Z,2.45
2023-02-12T15:50:26.869Z,2.80
2023-02-12T15:52:53.760Z,2.45
2023-02-12T15:55:22.499Z,2.28
2023-02-12T15:57:53.405Z,2.33
2023-02-12T16:00:27.708Z,2.58
2023-02-12T16:02:54.526Z,2.75
2023-02-12T16:05:21.821Z,3.40
2023-02-12T16:07:49.021Z,3.10
2023-02-12T16:10:17.095Z,2.80
2023-02-12T16:12:45.891Z,2.35
2023-02-12T16:15:45.097Z,2.05
2023-02-12T16:18:25.499Z,1.90
2023-02-12T16:21:06.240Z,2.30
2023-02-12T16:23:33.289Z,1.73
2023-02-12T16:26:00.435Z,2.00
2023-02-12T16:28:28.134Z,1.60
2023-02-12T16:31:06.914Z,1.77
2023-02-12T16:33:36.782Z,1.50
2023-02-12T16:36:15.018Z,1.45
2023-02-12T16:38:46.225Z,1.83
2023-02-12T16:41:19.883Z,1.40
2023-02-12T16:43:48.062Z,1.55
2023-02-12T16:46:16.754Z,1.80
2023-02-12T16:48:49.429Z,1.70
2023-02-12T16:51:27.589Z,1.60
2023-02-12T16:53:57.604Z,1.60
2023-02-12T16:56:25.580Z,1.52
2023-02-12T16:58:56.631Z,1.63
2023-02-12T17:01:24.952Z,1.98
2023-02-12T17:03:52.389Z,1.98
2023-02-12T17:06:23.594Z,1.98
2023-02-12T17:08:50.458Z,2.03
2023-02-12T17:11:17.984Z,2.42
2023-02-12T17:13:45.890Z,2.35
2023-02-12T17:16:16.509Z,1.70
2023-02-12T17:18:52.325Z,1.80
2023-02-12T17:21:19.094Z,1.40
2023-02-12T17:23:45.890Z,1.80
2023-02-12T17:26:12.722Z,1.85
2023-02-12T17:28:41.403Z,1.73
2023-02-12T17:31:08.730Z,1.90
2023-02-12T17:33:35.649Z,1.58
2023-02-12T17:36:02.990Z,2.13
2023-02-12T17:38:29.914Z,1.70
2023-02-12T17:40:57.056Z,1.70
2023-02-12T17:43:24.436Z,1.92
2023-02-12T17:45:51.532Z,1.92
2023-02-12T17:48:18.526Z,2.05
2023-02-12T17:50:45.393Z,1.77
2023-02-12T17:53:13.105Z,1.90
2023-02-12T17:55:40.506Z,2.50
2023-02-12T17:58:07.524Z,2.60
2023-02-12T18:00:34.348Z,2.60
2023-02-12T18:03:01.710Z,1.90
2023-02-12T18:05:28.561Z,2.30
2023-02-12T18:07:56.234Z,2.00
2023-02-12T18:10:23.037Z,2.28
2023-02-12T18:12:49.938Z,2.40
2023-02-12T18:15:16.746Z,2.22
2023-02-12T18:17:43.650Z,2.50
2023-02-12T18:20:11.090Z,2.28
2023-02-12T18:22:38.010Z,2.28
2023-02-12T18:25:05.284Z,2.60
2023-02-12T18:27:32.145Z,3.08
2023-02-12T18:29:59.178Z,2.30
2023-02-12T18:32:25.980Z,2.50
2023-02-12T18:34:52.819Z,2.97
2023-02-12T18:37:19.638Z,3.65
2023-02-12T18:39:46.539Z,4.35
2023-02-12T18:42:13.332Z,3.78
2023-02-12T18:44:40.139Z,3.10
2023-02-12T18:47:07.005Z,3.10
2023-02-12T18:49:33.906Z,2.75
2023-02-12T18:52:02.081Z,2.92
2023-02-12T18:54:28.946Z,3.28
2023-02-12T18:56:55.816Z,2.92
2023-02-12T18:59:22.792Z,3.03
2023-02-12T19:01:50.842Z,3.50
2023-02-12T19:04:19.054Z,3.53
2023-02-12T19:06:50.248Z,3.80
2023-02-12T19:09:20.211Z,3.78
2023-02-12T19:11:48.021Z,3.30
2023-02-12T19:14:15.713Z,3.10
2023-02-12T19:16:44.942Z,3.55
2023-02-12T19:19:12.620Z,3.60
2023-02-12T19:21:39.863Z,3.67
2023-02-12T19:24:07.253Z,4.15
2023-02-12T19:26:35.587Z,3.65
2023-02-12T19:29:02.923Z,3.67
2023-02-12T19:31:34.276Z,3.53
2023-02-12T19:34:03.175Z,3.78
2023-02-12T19:36:32.810Z,4.35
2023-02-12T19:38:59.710Z,4.63
2023-02-12T19:41:27.497Z,4.13
2023-02-12T19:43:55.945Z,3.55
2023-02-12T19:46:22.884Z,4.30
2023-02-12T19:48:49.876Z,4.75
2023-02-12T19:51:18.312Z,4.55
2023-02-12T19:53:45.563Z,4.75
2023-02-12T19:56:12.796Z,4.63
2023-02-12T19:58:39.628Z,5.43
2023-02-12T20:01:14.061Z,5.18
2023-02-12T20:03:41.006Z,4.78
2023-02-12T20:06:12.372Z,4.30
2023-02-12T20:08:40.263Z,4.43
2023-02-12T20:11:07.822Z,4.25
2023-02-12T20:13:35.023Z,5.30
2023-02-12T20:16:03.239Z,4.97
2023-02-12T20:18:30.169Z,5.43
2023-02-12T20:20:57.341Z,5.40
2023-02-12T20:23:24.430Z,5.38
2023-02-12T20:25:51.312Z,5.68
2023-02-12T20:28:18.164Z,4.78
2023-02-12T20:30:45.383Z,5.60
2023-02-12T20:33:12.335Z,4.85
2023-02-12T20:35:39.413Z,4.35
2023-02-12T20:38:06.593Z,5.45
2023-02-12T20:40:33.614Z,5.40
2023-02-12T20:43:00.784Z,5.90
2023-02-12T20:45:28.109Z,5.97
2023-02-12T20:47:55.151Z,6.00
2023-02-12T20:50:22.041Z,5.25
2023-02-12T20:52:49.008Z,5.20
2023-02-12T20:55:15.875Z,5.28
2023-02-12T20:57:42.760Z,4.97
2023-02-12T21:00:09.879Z,4.57
2023-02-12T21:02:36.706Z,5.28
2023-02-12T21:05:03.536Z,4.80
2023-02-12T21:07:30.506Z,5.40
2023-02-12T21:09:57.338Z,4.70
2023-02-12T21:12:24.262Z,5.20
2023-02-12T21:14:51.137Z,4.68
2023-02-12T21:17:20.249Z,4.82
2023-02-12T21:19:47.116Z,5.00
2023-02-12T21:22:13.958Z,5.68
2023-02-12T21:24:40.769Z,4.82
2023-02-12T21:27:07.630Z,6.10
2023-02-12T21:29:34.527Z,5.32
2023-02-12T21:32:02.117Z,5.78
2023-02-12T21:34:28.994Z,6.10
2023-02-12T21:36:56.553Z,5.85
2023-02-12T21:39:25.442Z,4.97
2023-02-12T21:41:53.684Z,5.75
2023-02-12T21:44:21.137Z,5.97
2023-02-12T21:46:48.078Z,5.18
2023-02-12T21:49:17.643Z,5.32
2023-02-12T21:51:45.181Z,5.53
2023-02-12T21:54:13.293Z,5.53
2023-02-12T21:56:40.944Z,5.32
2023-02-12T21:59:11.202Z,5.60
2023-02-12T22:01:39.660Z,6.30
2023-02-12T22:04:07.300Z,5.22
2023-02-12T22:06:37.132Z,5.80
2023-02-12T22:09:08.033Z,5.50
2023-02-12T22:11:35.739Z,6.20
2023-02-12T22:14:04.409Z,5.07
2023-02-12T22:16:31.786Z,5.53
2023-02-12T22:19:01.860Z,5.43
2023-02-12T22:21:29.966Z,5.03
2023-02-12T22:23:59.573Z,5.95
2023-02-12T22:26:27.660Z,5.47
2023-02-12T22:28:58.984Z,5.85
2023-02-12T22:31:30.804Z,5.78
2023-02-12T22:33:58.852Z,5.60
2023-02-12T22:36:26.518Z,5.53
2023-02-12T22:38:54.206Z,5.15
2023-02-12T22:41:21.099Z,6.22
2023-02-12T22:43:48.254Z,5.40
2023-02-12T22:46:17.831Z,5.40
2023-02-12T22:48:47.286Z,4.90
2023-02-12T22:51:20.363Z,6.13
2023-02-12T22:53:47.378Z,5.57
2023-02-12T22:56:16.153Z,5.50
2023-02-12T22:58:44.623Z,6.10
2023-02-12T23:01:13.682Z,5.75
2023-02-12T23:03:41.151Z,5.65
2023-02-12T23:06:10.383Z,6.15
2023-02-12T23:08:37.270Z,6.97
2023-02-12T23:11:06.453Z,6.55
2023-02-12T23:13:34.070Z,6.85
2023-02-12T23:16:01.194Z,6.50
2023-02-12T23:18:28.063Z,5.65
2023-02-12T23:20:55.332Z,7.10
2023-02-12T23:23:22.681Z,5.90
2023-02-12T23:25:49.570Z,7.15
2023-02-12T23:28:17.071Z,6.47
2023-02-12T23:30:44.068Z,6.78
2023-02-12T23:33:11.068Z,6.75
2023-02-12T23:35:38.049Z,7.07
2023-02-12T23:38:05.222Z,7.13
2023-02-12T23:40:32.708Z,7.10
2023-02-12T23:42:59.997Z,6.32
2023-02-12T23:45:27.593Z,6.82
2023-02-12T23:47:55.017Z,6.80
2023-02-12T23:50:22.185Z,6.30
2023-02-12T23:52:49.111Z,6.93
2023-02-12T23:55:19.057Z,6.38
2023-02-12T23:57:46.291Z,6.38
